Time;durP1;ratioP1;P1;durP2;ratioP2;P2;SDS_P1;SDS_P2;PMS_P1;PMS_P2;Temp;Humidity;BMP_temperature;BMP_pressure;BME280_temperature;BME280_humidity;BME280_pressure;Samples;Min_cycle;Max_cycle;Signal;HPM_P1;HPM_P2
2021/12/11 00:01:49;;;;;;;106.35;68.68;;;;;;;1.08;93.13;100423.56;4985104;28;20042;-86
2021/12/11 00:04:25;;;;;;;100.88;65.50;;;;;;;1.13;93.42;100410.94;4985912;28;20010;-87
2021/12/11 00:06:53;;;;;;;115.88;70.30;;;;;;;1.12;92.89;100407.56;5000275;28;20033;-86
2021/12/11 00:09:39;;;;;;;119.53;67.72;;;;;;;0.93;92.88;100388.06;4983839;28;20018;-85
2021/12/11 00:12:12;;;;;;;109.18;67.47;;;;;;;1.22;92.72;100401.69;4984571;28;20025;-86
2021/12/11 00:14:46;;;;;;;100.20;66.20;;;;;;;1.07;92.24;100416.84;4985255;28;20041;-88
2021/12/11 00:17:19;;;;;;;115.63;67.95;;;;;;;0.99;93.15;100418.50;5000154;28;20077;-86
2021/12/11 00:19:45;;;;;;;98.53;66.88;;;;;;;1.07;93.85;100432.03;4999925;28;20104;-86
2021/12/11 00:22:15;;;;;;;100.75;66.32;;;;;;;1.05;93.44;100423.56;4977671;28;20058;-86
2021/12/11 00:24:42;;;;;;;116.15;68.63;;;;;;;1.07;93.36;100442.16;4974075;28;20089;-86
2021/12/11 00:27:21;;;;;;;105.95;66.25;;;;;;;1.15;93.37;100438.00;4988889;28;20026;-86
2021/12/11 00:29:48;;;;;;;109.05;70.55;;;;;;;1.02;94.04;100451.44;4978020;28;20014;-87
2021/12/11 00:32:21;;;;;;;;;;;;;;;1.23;93.82;100458.31;4958661;28;20038;-74
2021/12/11 00:34:46;;;;;;;134.60;73.78;;;;;;;1.35;92.95;100458.38;4958452;28;19993;-76
2021/12/11 00:37:18;;;;;;;120.10;69.05;;;;;;;1.36;92.87;100466.81;5000258;28;20057;-89
2021/12/11 00:39:56;;;;;;;109.60;68.47;;;;;;;1.07;91.86;100420.22;4974696;28;20034;-89
2021/12/11 00:42:24;;;;;;;111.00;66.25;;;;;;;1.22;91.87;100433.78;4977214;28;20114;-88
2021/12/11 00:44:55;;;;;;;106.65;68.25;;;;;;;1.22;91.90;100447.28;4994177;28;20022;-89
2021/12/11 00:47:32;;;;;;;108.28;69.03;;;;;;;1.24;91.78;100448.19;4980565;28;20497;-89
2021/12/11 00:50:06;;;;;;;111.15;70.28;;;;;;;1.50;91.25;100492.22;4979830;28;20089;-88
2021/12/11 00:52:40;;;;;;;104.38;64.97;;;;;;;1.58;91.35;100493.09;4980824;28;20033;-90
2021/12/11 00:55:21;;;;;;;102.72;66.10;;;;;;;1.51;90.74;100478.69;4986330;28;20027;-89
2021/12/11 00:58:22;;;;;;;106.57;66.90;;;;;;;1.47;91.11;100480.38;4978457;28;20037;-87
2021/12/11 01:00:59;;;;;;;100.57;65.55;;;;;;;1.72;90.93;100505.81;4982797;28;20026;-88
2021/12/11 01:03:31;;;;;;;96.28;64.47;;;;;;;1.59;90.66;100508.31;4990836;28;20042;-87
2021/12/11 01:06:04;;;;;;;107.30;67.85;;;;;;;1.58;90.34;100493.94;4974461;28;20034;-86
2021/12/11 01:08:47;;;;;;;100.05;65.10;;;;;;;1.80;90.38;100516.88;4963144;28;20070;-88
2021/12/11 01:12:13;;;;;;;101.72;66.97;;;;;;;1.61;89.72;100488.06;4974450;28;20037;-88
2021/12/11 01:14:57;;;;;;;99.97;66.35;;;;;;;1.71;89.52;100489.78;4981961;28;20038;-87
2021/12/11 01:17:57;;;;;;;100.00;66.22;;;;;;;1.74;89.88;100521.91;4974108;28;20046;-88
2021/12/11 01:20:46;;;;;;;97.20;66.78;;;;;;;1.16;90.71;100475.16;4978564;28;20018;-89
2021/12/11 01:23:33;;;;;;;109.05;67.70;;;;;;;1.38;91.27;100503.13;5003705;28;20086;-88
2021/12/11 01:26:11;;;;;;;89.57;63.67;;;;;;;1.69;90.72;100542.16;4982835;28;20026;-89
2021/12/11 01:29:23;;;;;;;106.28;65.65;;;;;;;1.34;90.86;100516.66;4973564;28;20134;-87
2021/12/11 01:32:10;;;;;;;98.85;65.72;;;;;;;1.49;90.44;100511.63;4959158;28;20102;-87
2021/12/11 01:37:48;;;;;;;;;;;;;;;1.91;89.58;100560.88;4958677;28;20030;-86
2021/12/11 01:40:25;;;;;;;99.82;64.40;;;;;;;1.77;89.37;100527.84;4977036;28;19918;-87
2021/12/11 01:42:56;;;;;;;94.95;65.25;;;;;;;1.75;89.07;100542.22;4981569;28;20145;-88
2021/12/11 01:45:28;;;;;;;93.78;64.20;;;;;;;1.93;89.24;100564.25;4978580;28;20030;-87
2021/12/11 01:47:56;;;;;;;101.60;67.03;;;;;;;1.59;89.76;100533.69;4975240;28;20046;-87
2021/12/11 01:50:27;;;;;;;92.18;64.88;;;;;;;1.81;89.50;100564.19;4978095;28;20520;-88
2021/12/11 01:52:58;;;;;;;106.78;68.50;;;;;;;1.68;90.49;100578.50;4983551;28;20107;-88
2021/12/11 01:55:50;;;;;;;101.75;65.35;;;;;;;1.86;90.18;100593.00;5070557;23;20078;-88
2021/12/11 01:58:45;;;;;;;90.50;63.47;;;;;;;1.38;90.52;100529.31;4964487;28;20034;-88
2021/12/11 02:01:42;;;;;;;99.13;65.00;;;;;;;1.78;90.85;100592.94;4977317;28;20051;-88
2021/12/11 02:04:12;;;;;;;91.20;64.95;;;;;;;1.47;90.44;100556.41;4978919;28;20013;-87
2021/12/11 02:10:34;;;;;;;102.97;66.18;;;;;;;1.77;91.13;100598.00;4981288;28;20026;-87
2021/12/11 02:13:08;;;;;;;96.30;65.75;;;;;;;1.53;90.86;100551.38;4951870;28;20038;-88
2021/12/11 02:15:46;;;;;;;102.50;67.68;;;;;;;1.68;90.15;100575.13;4956312;28;20034;-89
2021/12/11 02:18:35;;;;;;;105.05;66.18;;;;;;;1.95;90.50;100620.06;4960422;28;20082;-87
2021/12/11 02:21:15;;;;;;;103.50;66.38;;;;;;;1.90;89.85;100604.00;4966627;28;20023;-87
2021/12/11 02:23:41;;;;;;;100.88;66.45;;;;;;;1.61;89.63;100567.50;4975297;28;20029;-88
2021/12/11 02:26:15;;;;;;;98.63;66.57;;;;;;;1.77;91.11;100600.53;4958007;28;20037;-87
2021/12/11 02:28:58;;;;;;;106.88;68.53;;;;;;;1.35;92.03;100597.75;4955678;28;20030;-88
2021/12/11 02:31:42;;;;;;;107.10;68.95;;;;;;;1.48;92.70;100601.22;4957537;28;20015;-90
2021/12/11 02:34:48;;;;;;;107.53;67.82;;;;;;;1.63;91.72;100626.66;4972573;28;20114;-87
2021/12/11 02:37:45;;;;;;;104.38;66.93;;;;;;;1.82;91.67;100629.31;4951569;29;20043;-87
2021/12/11 02:40:35;;;;;;;101.43;65.63;;;;;;;1.81;90.86;100635.22;4951586;28;20045;-87
2021/12/11 02:43:20;;;;;;;102.43;67.68;;;;;;;1.92;91.18;100637.81;4962952;28;20478;-87
2021/12/11 02:46:20;;;;;;;100.65;66.40;;;;;;;1.55;90.41;100577.59;4974591;28;20034;-87
2021/12/11 02:49:21;;;;;;;96.75;64.63;;;;;;;2.00;89.90;100646.31;4960966;28;20042;-85
2021/12/11 02:52:17;;;;;;;97.35;67.20;;;;;;;1.78;89.88;100612.38;4962146;29;20039;-87
2021/12/11 02:55:16;;;;;;;101.43;67.82;;;;;;;1.51;91.14;100592.78;4948743;28;20136;-89
2021/12/11 02:58:03;;;;;;;97.63;64.43;;;;;;;1.74;90.43;100624.19;4945081;28;20038;-88
2021/12/11 03:01:19;;;;;;;;;;;;;;;;;;;;;
2021/12/11 03:04:01;;;;;;;94.13;63.88;;;;;;;1.84;90.30;100635.22;4963613;29;20117;-89
2021/12/11 03:06:38;;;;;;;93.40;66.13;;;;;;;2.07;90.36;100678.50;4952394;28;20030;-88
2021/12/11 03:09:37;;;;;;;94.80;64.63;;;;;;;2.05;89.94;100667.47;4959838;28;20379;-89
2021/12/11 03:16:52;;;;;;;96.85;66.63;;;;;;;1.82;91.90;100677.50;4971576;28;20463;-88
2021/12/11 03:23:20;;;;;;;101.63;66.20;;;;;;;1.65;92.69;100677.38;4921043;29;20088;-88
2021/12/11 03:26:26;;;;;;;96.53;65.57;;;;;;;1.49;91.76;100630.78;4918097;29;20115;-88
2021/12/11 03:29:34;;;;;;;96.28;65.25;;;;;;;1.53;91.43;100660.41;4978164;28;20117;-88
2021/12/11 03:43:34;;;;;;;97.25;66.70;;;;;;;1.16;93.02;100637.31;4993556;28;20035;-89
2021/12/11 03:50:11;;;;;;;;;;;;;;;;;;;;;
2021/12/11 03:56:40;;;;;;;109.47;68.30;;;;;;;1.47;93.42;100716.13;4973517;28;20035;-89
2021/12/11 03:59:54;;;;;;;96.85;64.93;;;;;;;1.72;92.62;100712.09;4960550;28;20042;-89
2021/12/11 04:03:06;;;;;;;;;;;;;;;;;;;;;
2021/12/11 04:06:38;;;;;;;;;;;;;;;;;;;;;
2021/12/11 04:09:40;;;;;;;102.03;67.68;;;;;;;1.83;91.92;100721.47;4943801;28;20071;-88
2021/12/11 04:12:11;;;;;;;96.05;64.95;;;;;;;1.77;92.13;100740.03;4939547;28;20047;-89
2021/12/11 04:17:56;;;;;;;98.97;66.13;;;;;;;1.73;91.01;100712.94;4933935;28;20043;-89
2021/12/11 04:20:47;;;;;;;88.60;63.75;;;;;;;1.76;91.00;100725.63;4952850;28;20038;-90
2021/12/11 04:23:17;;;;;;;97.93;64.43;;;;;;;1.80;90.77;100729.91;4958014;28;20068;-89
2021/12/11 04:25:48;;;;;;;93.70;65.85;;;;;;;1.85;90.84;100773.06;4948669;28;20026;-88
2021/12/11 04:28:16;;;;;;;92.22;65.15;;;;;;;1.79;90.65;100749.31;4938347;29;20031;-88
2021/12/11 04:30:42;;;;;;;95.05;66.25;;;;;;;1.82;90.60;100753.59;4969437;28;20030;-89
2021/12/11 04:33:07;;;;;;;94.68;63.05;;;;;;;2.01;90.10;100789.25;4965313;28;20035;-88
2021/12/11 04:35:33;;;;;;;89.40;62.30;;;;;;;1.95;90.63;100790.88;4966063;28;20035;-89
2021/12/11 04:38:02;;;;;;;82.50;62.58;;;;;;;1.55;89.97;100729.69;4951354;28;20509;-89
2021/12/11 04:40:32;;;;;;;81.65;61.10;;;;;;;1.54;90.91;100742.38;4942966;29;20170;-88
2021/12/11 04:43:03;;;;;;;85.22;62.78;;;;;;;1.79;91.41;100799.22;4942655;29;20023;-89
2021/12/11 04:45:36;;;;;;;95.63;66.90;;;;;;;1.30;91.53;100725.25;4950362;28;20022;-88
2021/12/11 05:26:47;;;;;;;83.50;61.28;;;;;;;1.59;90.41;100801.56;4931654;28;20034;-88
2021/12/11 05:29:16;;;;;;;85.85;61.58;;;;;;;1.50;90.42;100797.28;4948298;29;20031;-90
2021/12/11 05:31:45;;;;;;;93.57;63.80;;;;;;;1.59;90.36;100811.72;4969430;29;20106;-89
2021/12/11 05:34:10;;;;;;;83.47;60.72;;;;;;;1.63;90.07;100814.28;4943389;29;20453;-89
2021/12/11 05:36:36;;;;;;;88.23;61.87;;;;;;;1.86;89.71;100856.78;4961443;28;20131;-90
2021/12/11 05:39:13;;;;;;;89.95;62.33;;;;;;;1.58;90.64;100863.28;4966498;28;20082;-89
2021/12/11 05:49:10;;;;;;;86.28;63.33;;;;;;;1.15;92.73;100858.56;4981990;28;20031;-89
2021/12/11 05:52:09;;;;;;;88.28;63.05;;;;;;;1.23;92.17;100877.25;4927482;29;20039;-88
2021/12/11 05:55:08;;;;;;;94.85;64.65;;;;;;;1.06;92.42;100855.91;4958140;29;20118;-89
2021/12/11 05:57:37;;;;;;;101.32;64.80;;;;;;;1.24;92.32;100886.56;4975125;28;20035;-85
2021/12/11 06:00:32;;;;;;;93.93;62.85;;;;;;;0.98;92.32;100852.44;4970343;29;20219;-87
2021/12/11 06:03:05;;;;;;;89.50;60.65;;;;;;;0.98;92.24;100832.19;4974901;29;20046;-87
2021/12/11 06:05:50;;;;;;;86.43;62.20;;;;;;;1.27;92.22;100894.19;4969317;28;20035;-88
2021/12/11 06:08:25;;;;;;;86.90;61.13;;;;;;;1.10;91.80;100852.59;4937053;29;20050;-88
2021/12/11 06:10:54;;;;;;;89.25;61.33;;;;;;;1.21;91.41;100867.91;4946289;29;20118;-89
2021/12/11 06:13:24;;;;;;;84.40;61.30;;;;;;;1.10;91.21;100867.81;4938350;28;20027;-88
2021/12/11 06:15:55;;;;;;;85.78;61.88;;;;;;;1.40;91.05;100910.41;4948803;28;20022;-87
2021/12/11 06:19:04;;;;;;;80.47;60.75;;;;;;;1.04;92.22;100893.06;4948475;28;20030;-89
2021/12/11 06:22:01;;;;;;;87.95;61.08;;;;;;;1.15;92.69;100911.78;4924492;28;20039;-89
2021/12/11 06:31:22;;;;;;;82.75;61.10;;;;;;;1.03;92.48;100911.59;4940994;28;20125;-87
2021/12/11 06:33:52;;;;;;;85.15;59.85;;;;;;;1.19;91.57;100928.69;4909095;29;20012;-87
2021/12/11 06:36:19;;;;;;;80.22;59.78;;;;;;;0.95;91.99;100898.00;4965168;28;20050;-87
2021/12/11 06:38:48;;;;;;;81.05;60.90;;;;;;;0.93;92.12;100902.19;4946231;29;20098;-87
2021/12/11 06:41:18;;;;;;;87.43;61.53;;;;;;;0.99;91.99;100927.63;4952019;29;20050;-87
2021/12/11 06:43:43;;;;;;;86.32;62.60;;;;;;;0.65;92.76;100909.38;4945158;29;20031;-88
2021/12/11 06:46:12;;;;;;;80.05;61.53;;;;;;;0.58;92.96;100882.28;4951406;28;20074;-88
2021/12/11 06:48:38;;;;;;;81.82;60.85;;;;;;;0.75;92.86;100918.84;4956995;28;20022;-88
2021/12/11 06:51:05;;;;;;;74.15;59.78;;;;;;;0.56;92.49;100881.41;4964693;28;20083;-88
2021/12/11 06:54:00;;;;;;;79.47;60.78;;;;;;;1.00;93.06;100959.69;4954808;28;20038;-88
2021/12/11 07:00:50;;;;;;;78.93;58.90;;;;;;;0.68;93.54;100944.88;4906365;29;20136;-89
2021/12/11 07:03:46;;;;;;;82.50;60.78;;;;;;;0.82;92.82;100966.19;4869779;29;20040;-89
2021/12/11 07:06:18;;;;;;;81.45;60.97;;;;;;;0.78;93.28;100972.06;4870012;29;20489;-90
2021/12/11 07:09:10;;;;;;;84.65;60.40;;;;;;;0.60;92.43;100947.28;4921656;29;20039;-88
2021/12/11 07:12:11;;;;;;;76.53;60.08;;;;;;;0.75;92.89;100950.88;4948246;29;20019;-87
2021/12/11 07:15:38;;;;;;;78.80;60.25;;;;;;;0.99;91.70;100970.69;4956587;28;20043;-87
2021/12/11 07:18:58;;;;;;;;;;;;;;;;;;;;;
2021/12/11 07:29:10;;;;;;;88.18;59.13;;;;;;;0.47;90.68;100950.47;4961786;28;20023;-87
2021/12/11 07:50:15;;;;;;;;;;;;;;;;;;;;;
2021/12/11 08:00:31;;;;;;;76.65;58.55;;;;;;;1.28;89.69;101072.44;4867637;29;20146;-86
2021/12/11 08:03:34;;;;;;;77.15;59.88;;;;;;;1.26;88.98;101029.34;4844683;29;20049;-87
2021/12/11 08:06:47;;;;;;;76.20;58.83;;;;;;;1.89;87.11;101080.03;4863299;29;20037;-88
2021/12/11 08:58:35;;;;;;;67.20;57.70;;;;;;;1.60;87.82;101138.81;5002835;28;20050;-89
2021/12/11 09:01:15;;;;;;;67.93;57.22;;;;;;;1.70;87.86;101136.44;4986972;28;20034;-88
2021/12/11 09:04:06;;;;;;;69.03;56.85;;;;;;;1.76;87.07;101144.13;4976298;28;20034;-87
2021/12/11 09:06:44;;;;;;;67.38;56.83;;;;;;;1.59;87.91;101121.91;4982571;28;20037;-88
2021/12/11 09:09:34;;;;;;;72.93;58.60;;;;;;;1.79;88.26;101144.16;4983756;28;20504;-89
2021/12/11 09:12:12;;;;;;;70.57;57.42;;;;;;;1.81;87.45;101145.03;4989922;28;20133;-86
2021/12/11 09:14:51;;;;;;;73.40;58.08;;;;;;;1.53;87.69;101121.84;4996974;28;20029;-88
2021/12/11 09:17:29;;;;;;;68.10;57.03;;;;;;;1.63;87.67;101138.03;4988141;28;20037;-88
2021/12/11 09:19:57;;;;;;;70.15;56.45;;;;;;;1.68;87.76;101135.56;4992312;28;20032;-88
2021/12/11 09:22:31;;;;;;;73.38;58.75;;;;;;;1.78;87.96;101168.69;5000945;28;20162;-87
2021/12/11 09:32:04;;;;;;;95.20;62.03;;;;;;;1.60;87.10;101159.09;4990695;28;20062;-90
2021/12/11 11:04:11;;;;;;;84.60;60.15;;;;;;;2.56;83.02;101250.94;4999643;28;20033;-88
2021/12/11 11:06:37;;;;;;;81.28;58.70;;;;;;;2.48;82.86;101238.13;4979217;28;20027;-90
2021/12/11 11:09:09;;;;;;;89.00;60.80;;;;;;;2.65;82.84;101267.13;4994761;28;20434;-88
2021/12/11 11:12:21;;;;;;;76.60;57.33;;;;;;;2.64;83.37;101265.47;4983438;28;20265;-87
2021/12/11 11:14:53;;;;;;;67.95;57.78;;;;;;;2.49;83.17;101270.31;4926463;29;20035;-86
2021/12/11 11:17:27;;;;;;;67.90;57.15;;;;;;;2.25;83.07;101218.38;4966577;28;20673;-86
2021/12/11 11:20:12;;;;;;;70.97;57.92;;;;;;;2.67;83.04;101268.03;4987135;28;20141;-86
2021/12/11 11:23:08;;;;;;;62.55;55.83;;;;;;;2.63;82.82;101268.81;4941095;28;20109;-86
2021/12/11 11:25:47;;;;;;;74.35;58.10;;;;;;;2.39;82.48;101230.41;4981927;28;20039;-85
2021/12/11 11:28:30;;;;;;;73.15;57.72;;;;;;;2.46;82.41;101250.81;4967643;28;20007;-86
2021/12/11 11:31:12;;;;;;;80.72;58.30;;;;;;;2.56;81.89;101267.00;4969097;28;20042;-86
2021/12/11 11:34:12;;;;;;;68.72;56.50;;;;;;;2.88;80.97;101282.69;4963452;28;20050;-85
2021/12/11 11:40:16;;;;;;;77.00;59.20;;;;;;;2.69;80.62;101256.19;4940913;28;20020;-85
2021/12/11 11:43:12;;;;;;;65.22;56.53;;;;;;;2.82;81.36;101299.53;4973110;28;20030;-85
2021/12/11 11:46:33;;;;;;;68.97;57.17;;;;;;;2.90;80.63;101292.88;4959197;28;20091;-83
2021/12/11 11:49:44;;;;;;;78.90;59.40;;;;;;;3.10;79.84;101288.00;4999605;28;20071;-85
2021/12/11 11:52:24;;;;;;;66.05;55.83;;;;;;;3.31;80.17;101284.84;4967209;28;20035;-84
2021/12/11 11:55:31;;;;;;;73.53;58.47;;;;;;;3.11;79.45;101271.06;4954808;28;20089;-86
2021/12/11 11:58:31;;;;;;;66.00;55.95;;;;;;;2.80;80.21;101247.84;4953230;29;20047;-87
2021/12/11 12:01:11;;;;;;;76.32;59.25;;;;;;;3.10;79.66;101300.69;4941837;28;20038;-86
2021/12/11 12:03:37;;;;;;;64.47;56.00;;;;;;;3.13;79.69;101295.66;4955049;28;20026;-87
2021/12/11 12:06:11;;;;;;;63.85;56.05;;;;;;;3.23;79.62;101306.78;4956023;28;20015;-88
2021/12/11 12:08:42;;;;;;;61.30;54.90;;;;;;;3.12;79.96;101303.25;4976517;28;20124;-88
2021/12/11 12:11:08;;;;;;;62.67;55.70;;;;;;;3.05;79.79;101297.25;4966436;28;20437;-89
2021/12/11 12:13:34;;;;;;;64.38;56.40;;;;;;;3.33;79.40;101313.69;4981435;28;20011;-87
2021/12/11 12:16:06;;;;;;;69.18;56.33;;;;;;;3.11;79.78;101286.31;4966544;28;20019;-92
2021/12/11 12:18:33;;;;;;;62.20;55.53;;;;;;;3.12;79.66;101299.06;5158219;23;20034;-90
2021/12/11 12:21:00;;;;;;;69.43;56.63;;;;;;;3.20;79.90;101287.28;5052843;23;20068;-92
2021/12/11 12:26:05;;;;;;;70.43;57.47;;;;;;;3.47;78.40;101310.41;5179821;22;20070;-92
2021/12/11 12:28:32;;;;;;;67.90;56.42;;;;;;;2.91;79.58;101274.22;5040641;23;20039;-92
2021/12/11 12:31:02;;;;;;;63.70;56.20;;;;;;;3.50;78.07;101324.03;4974696;28;20059;-87
2021/12/11 12:33:30;;;;;;;61.85;55.35;;;;;;;3.23;78.82;101337.28;4957809;28;20015;-86
2021/12/11 12:35:58;;;;;;;61.83;54.92;;;;;;;3.14;79.52;101316.88;4967911;28;20034;-87
2021/12/11 12:38:27;;;;;;;61.72;55.13;;;;;;;3.12;79.47;101323.59;4933886;29;20470;-89
2021/12/11 12:41:02;;;;;;;65.15;55.33;;;;;;;3.05;80.06;101321.00;4958265;28;20066;-91
2021/12/11 12:44:16;;;;;;;62.92;55.70;;;;;;;3.22;79.96;101338.13;4937460;29;20043;-91
2021/12/11 12:46:33;;;;;;;64.90;56.53;;;;;;;3.04;79.95;101321.84;4965909;29;20027;-90
2021/12/11 12:48:59;;;;;;;64.03;56.42;;;;;;;2.92;79.75;101325.91;4996784;23;20034;-91
2021/12/11 12:51:25;;;;;;;;;;;;;;;3.16;80.64;101345.69;5027278;23;20041;-90
2021/12/11 12:53:51;;;;;;;69.05;56.47;;;;;;;3.09;80.18;101324.44;4982927;28;19909;-89
2021/12/11 12:56:21;;;;;;;62.08;54.65;;;;;;;3.20;79.05;101343.19;4984004;28;20042;-90
2021/12/11 12:58:58;;;;;;;64.07;56.17;;;;;;;3.15;78.94;101337.22;4984218;28;20048;-90
2021/12/11 13:01:36;;;;;;;66.65;56.50;;;;;;;3.12;79.21;101329.56;5016225;28;20026;-89
2021/12/11 13:04:03;;;;;;;63.92;55.60;;;;;;;3.19;78.08;101348.28;4999433;28;20018;-89
2021/12/11 13:06:31;;;;;;;73.38;57.30;;;;;;;3.29;78.50;101347.53;4999744;28;20022;-90
2021/12/11 13:11:39;;;;;;;67.97;55.78;;;;;;;3.17;78.78;101334.69;5257006;23;20055;-92
2021/12/11 13:14:09;;;;;;;65.45;55.75;;;;;;;3.29;79.08;101337.34;4960385;28;20090;-93
2021/12/11 13:16:39;;;;;;;63.38;54.65;;;;;;;3.14;77.99;101329.56;4990441;28;20021;-92
2021/12/11 13:19:19;;;;;;;59.80;53.38;;;;;;;3.36;77.27;101361.19;4965667;28;20031;-92
2021/12/11 13:22:07;;;;;;;64.10;54.70;;;;;;;3.38;77.58;101362.03;4989982;28;20034;-87
2021/12/11 13:24:38;;;;;;;60.95;54.15;;;;;;;3.53;77.24;101362.22;4989720;28;20033;-87
2021/12/11 13:27:07;;;;;;;65.53;54.80;;;;;;;3.56;76.88;101356.28;4973101;28;20080;-87
2021/12/11 13:29:37;;;;;;;67.32;55.83;;;;;;;3.51;77.02;101373.19;4980610;28;20410;-89
2021/12/11 13:32:11;;;;;;;60.97;54.45;;;;;;;3.41;76.65;101365.47;4982435;28;20025;-87
2021/12/11 13:34:39;;;;;;;61.90;54.92;;;;;;;3.61;77.17;101385.16;4967159;28;20026;-86
2021/12/11 13:37:09;;;;;;;61.38;54.58;;;;;;;3.41;76.46;101365.47;4964231;28;20018;-86
2021/12/11 13:39:36;;;;;;;60.63;54.30;;;;;;;3.36;76.91;101368.81;4947440;28;20030;-86
2021/12/11 13:42:06;;;;;;;62.15;53.95;;;;;;;3.46;76.47;101385.88;4966628;28;20105;-84
2021/12/11 13:44:35;;;;;;;60.65;53.28;;;;;;;3.54;76.84;101396.13;4980147;28;20030;-86
2021/12/11 13:47:05;;;;;;;70.80;56.15;;;;;;;3.43;77.16;101386.69;4964947;28;20022;-85
2021/12/11 13:49:30;;;;;;;60.35;53.88;;;;;;;3.46;76.72;101390.94;4981657;28;20461;-87
2021/12/11 13:51:56;;;;;;;63.33;53.27;;;;;;;3.29;77.37;101372.94;4982393;28;20062;-86
2021/12/11 13:54:22;;;;;;;61.03;54.25;;;;;;;3.35;77.15;101387.44;4974486;28;20042;-86
2021/12/11 13:56:51;;;;;;;60.58;54.05;;;;;;;3.38;76.54;101390.88;4948324;28;20046;-87
2021/12/11 13:59:17;;;;;;;60.67;54.17;;;;;;;3.32;77.35;101388.25;4982701;28;20118;-87
2021/12/11 14:01:44;;;;;;;66.35;54.35;;;;;;;3.39;77.17;101395.13;4991378;28;20019;-86
2021/12/11 14:04:12;;;;;;;60.28;53.97;;;;;;;3.31;76.84;101394.19;4987831;28;20473;-87
2021/12/11 14:06:47;;;;;;;59.83;53.38;;;;;;;3.29;76.50;101388.19;4968374;28;20453;-88
2021/12/11 14:09:14;;;;;;;66.47;55.25;;;;;;;3.39;76.41;101404.47;4972068;28;20018;-86
2021/12/11 14:11:39;;;;;;;;;;;;;;;3.42;75.48;101400.25;4955962;23;1247808;-81
2021/12/11 14:14:08;;;;;;;61.30;53.58;;;;;;;3.34;75.49;101380.63;4966587;28;19914;-83
2021/12/11 14:16:34;;;;;;;58.95;52.75;;;;;;;3.45;75.05;101404.50;4948437;28;20229;-82
2021/12/11 14:18:59;;;;;;;60.97;53.70;;;;;;;3.32;74.97;101395.88;4946027;29;20121;-82
2021/12/11 14:21:25;;;;;;;59.60;53.17;;;;;;;3.45;75.52;101407.91;4951370;28;20803;-82
2021/12/11 14:23:52;;;;;;;60.37;54.00;;;;;;;3.45;74.92;101415.53;4976741;28;20050;-82
2021/12/11 14:26:22;;;;;;;61.10;54.38;;;;;;;3.48;75.41;101414.72;4962691;28;20030;-81
2021/12/11 14:28:51;;;;;;;63.55;54.40;;;;;;;3.45;74.90;101415.53;4966731;28;20022;-82
2021/12/11 14:31:18;;;;;;;65.28;55.08;;;;;;;3.38;75.13;101412.91;4980364;28;20029;-81
2021/12/11 14:33:44;;;;;;;66.22;55.13;;;;;;;3.35;75.83;101413.72;4976287;28;20061;-81
2021/12/11 14:36:13;;;;;;;64.85;55.28;;;;;;;3.40;75.93;101422.25;4992231;28;20089;-81
2021/12/11 14:38:40;;;;;;;60.38;53.92;;;;;;;3.24;75.25;101403.41;4989014;28;20093;-83
2021/12/11 14:41:06;;;;;;;60.80;54.22;;;;;;;3.40;76.40;101422.25;4982077;28;20027;-80
2021/12/11 14:43:32;;;;;;;63.05;55.88;;;;;;;3.37;75.72;101427.31;4963237;28;20122;-82
2021/12/11 14:45:58;;;;;;;59.58;53.22;;;;;;;3.44;76.38;101425.69;4977934;28;20429;-82
2021/12/11 14:48:25;;;;;;;61.38;54.72;;;;;;;3.30;75.95;101410.28;4989593;28;20034;-82
2021/12/11 14:50:55;;;;;;;67.68;56.33;;;;;;;3.34;75.96;101426.41;4976210;28;20025;-82
2021/12/11 14:53:24;;;;;;;61.83;54.10;;;;;;;3.27;76.74;101421.25;4971719;28;20085;-81
2021/12/11 14:55:53;;;;;;;62.55;55.65;;;;;;;3.38;76.80;101434.09;4961547;28;20037;-80
2021/12/11 14:58:19;;;;;;;70.22;56.42;;;;;;;3.42;77.07;101440.94;4973919;28;20041;-82
2021/12/11 15:00:53;;;;;;;77.38;56.40;;;;;;;3.41;76.79;101448.56;4976718;28;20030;-83
2021/12/11 15:03:19;;;;;;;85.20;59.50;;;;;;;3.39;76.64;101445.16;4990151;28;20030;-82
2021/12/11 15:05:46;;;;;;;62.75;54.97;;;;;;;3.43;76.57;101452.81;4974975;28;20098;-84
2021/12/11 15:08:14;;;;;;;69.72;56.05;;;;;;;3.34;77.29;101442.53;4966003;28;20035;-83
2021/12/11 15:10:40;;;;;;;60.25;53.67;;;;;;;3.33;76.69;101445.91;4960981;28;20058;-85
2021/12/11 15:13:06;;;;;;;59.63;53.45;;;;;;;3.50;76.97;101468.16;4974202;28;20022;-84
2021/12/11 15:15:33;;;;;;;66.70;55.78;;;;;;;3.44;77.01;101456.22;4985464;28;20034;-84
2021/12/11 15:17:58;;;;;;;66.00;56.35;;;;;;;3.36;76.69;101445.09;4974334;28;20018;-79
2021/12/11 15:20:32;;;;;;;61.67;54.97;;;;;;;3.50;76.37;101463.06;4979301;28;20055;-85
2021/12/11 15:22:58;;;;;;;65.97;56.17;;;;;;;3.45;76.70;101458.78;4990234;28;20095;-84
2021/12/11 15:25:27;;;;;;;60.15;53.63;;;;;;;3.50;77.28;101468.16;4986208;28;20019;-85
2021/12/11 15:27:53;;;;;;;60.83;54.35;;;;;;;3.40;77.16;101468.03;4966352;28;20015;-84
2021/12/11 15:30:22;;;;;;;63.72;54.00;;;;;;;3.45;77.17;101466.41;4966002;28;20018;-84
2021/12/11 15:32:50;;;;;;;61.40;54.78;;;;;;;3.50;76.83;101476.66;4991681;28;20027;-84
2021/12/11 15:35:19;;;;;;;64.93;54.75;;;;;;;3.49;76.70;101472.38;4990916;28;20078;-84
2021/12/11 15:37:47;;;;;;;59.80;53.70;;;;;;;3.43;76.56;101470.59;4977408;28;20033;-86
2021/12/11 15:40:20;;;;;;;60.83;54.17;;;;;;;3.57;77.14;101498.78;4986082;28;20061;-86
2021/12/11 15:42:47;;;;;;;59.25;53.13;;;;;;;3.55;77.97;101502.16;4971939;28;20034;-82
2021/12/11 15:45:14;;;;;;;75.63;56.45;;;;;;;3.37;78.26;101496.00;4968940;28;20023;-82
2021/12/11 15:47:43;;;;;;;63.90;55.03;;;;;;;3.37;80.01;101506.16;4968609;28;20030;-82
2021/12/11 15:50:11;;;;;;;60.50;53.83;;;;;;;3.36;80.93;101494.28;4985201;28;20030;-82
2021/12/11 15:52:37;;;;;;;61.17;54.55;;;;;;;3.30;81.77;101506.91;4967937;28;20019;-81
2021/12/11 15:55:04;;;;;;;60.57;54.00;;;;;;;3.29;81.40;101500.09;4976310;28;20037;-81
2021/12/11 15:57:30;;;;;;;61.10;54.38;;;;;;;3.23;80.13;101485.63;4978244;28;20077;-81
2021/12/11 15:59:55;;;;;;;62.23;55.23;;;;;;;3.32;80.99;101509.47;4975412;28;20042;-80
2021/12/11 16:02:23;;;;;;;66.27;55.17;;;;;;;3.34;80.58;101513.75;4966649;28;20037;-81
2021/12/11 16:04:49;;;;;;;59.67;53.30;;;;;;;3.32;79.87;101517.09;4963779;28;20257;-81
2021/12/11 16:07:17;;;;;;;65.93;55.55;;;;;;;3.26;79.78;101505.13;4966382;28;20018;-81
2021/12/11 16:09:43;;;;;;;61.83;55.28;;;;;;;3.29;79.11;101512.81;4974273;28;20034;-81
2021/12/11 16:12:21;;;;;;;67.53;56.72;;;;;;;3.39;79.96;101539.25;4972181;28;20041;-81
2021/12/11 16:14:47;;;;;;;60.45;54.15;;;;;;;3.39;79.76;101545.19;4985373;28;20053;-82
2021/12/11 16:17:13;;;;;;;68.40;55.93;;;;;;;3.37;79.07;101549.41;4965124;28;20486;-81
2021/12/11 16:19:44;;;;;;;61.15;53.28;;;;;;;3.45;79.02;101557.97;4953863;28;20042;-81
2021/12/11 16:22:18;;;;;;;59.97;53.60;;;;;;;3.38;78.59;101551.09;4967154;28;20030;-80
2021/12/11 16:24:45;;;;;;;65.40;55.47;;;;;;;3.35;78.47;101545.94;4981200;28;20038;-80
2021/12/11 16:27:10;;;;;;;;;;;;;;;3.38;78.62;101551.09;4984525;28;20069;-82
2021/12/11 16:29:38;;;;;;;60.75;53.70;;;;;;;3.29;78.11;101545.84;4967738;28;20297;-80
2021/12/11 16:32:05;;;;;;;65.50;55.58;;;;;;;3.26;78.38;101540.72;4957141;28;20026;-84
2021/12/11 16:34:30;;;;;;;61.05;54.22;;;;;;;3.27;78.28;101550.09;4989726;28;20027;-80
2021/12/11 16:36:55;;;;;;;60.27;54.20;;;;;;;3.18;78.64;101524.50;4985458;28;20486;-80
2021/12/11 16:39:24;;;;;;;61.63;54.40;;;;;;;3.34;79.24;101556.97;4954576;28;20022;-81
2021/12/11 16:41:56;;;;;;;62.47;53.83;;;;;;;3.38;79.03;101563.81;4973451;28;20042;-79
2021/12/11 16:44:23;;;;;;;61.05;54.63;;;;;;;3.21;79.22;101547.44;4984655;28;20037;-80
2021/12/11 16:46:55;;;;;;;62.97;55.22;;;;;;;3.33;79.00;101567.97;4985430;28;20026;-79
2021/12/11 16:49:23;;;;;;;62.00;54.28;;;;;;;3.30;78.43;101557.75;4950705;28;20025;-83
2021/12/11 16:51:51;;;;;;;67.15;55.30;;;;;;;3.29;78.17;101563.66;4949782;28;20081;-80